Terminal Aerodrome Forecast
Issued by NWS

Home | Current Version | Previous Version | Text Only | Print | Product List | Glossary On
Versions: 1 2 3 4 5 6 7 8 9 10 11 12 13 14 15 16 17 18 19
000
FTUS43 KIND 281720
TAFLAF
TAF
KLAF 281720Z 2818/2918 09007KT P6SM VCSH BKN015
      TEMPO 2818/2822 4SM -SHRA
     FM282300 29008KT P6SM SCT020 BKN035
     FM290400 VRB04KT 4SM BR SCT007 BKN015
     FM290700 VRB03KT 1 1/2SM BR OVC004
     FM291500 34003KT P6SM SCT007 BKN015=

USA.gov is the U.S. government's official web portal to all federal, state and local government web resources and services.